sensor_id;sensor_type;location;lat;lon;timestamp;temperature;humidity
2565;DHT22;1292;48.020;7.822;2022-08-19T05:46:28;20.10;99.90
2565;DHT22;1292;48.020;7.822;2022-08-19T05:48:55;20.20;99.90
2565;DHT22;1292;48.020;7.822;2022-08-19T05:51:22;20.20;99.90
2565;DHT22;1292;48.020;7.822;2022-08-19T05:53:50;20.30;99.90
2565;DHT22;1292;48.020;7.822;2022-08-19T05:56:18;20.30;99.90
2565;DHT22;1292;48.020;7.822;2022-08-19T05:58:45;20.30;99.90
2565;DHT22;1292;48.020;7.822;2022-08-19T06:01:15;20.30;99.90
2565;DHT22;1292;48.020;7.822;2022-08-19T06:03:45;20.30;99.90
2565;DHT22;1292;48.020;7.822;2022-08-19T06:06:14;20.40;99.90
2565;DHT22;1292;48.020;7.822;2022-08-19T06:08:42;20.40;99.90
2565;DHT22;1292;48.020;7.822;2022-08-19T06:11:16;20.40;99.90
2565;DHT22;1292;48.020;7.822;2022-08-19T06:13:43;20.50;99.90
2565;DHT22;1292;48.020;7.822;2022-08-19T06:16:12;20.50;99.90
2565;DHT22;1292;48.020;7.822;2022-08-19T06:18:50;20.50;99.90
2565;DHT22;1292;48.020;7.822;2022-08-19T06:21:19;20.50;99.90
2565;DHT22;1292;48.020;7.822;2022-08-19T06:23:46;20.50;99.90
2565;DHT22;1292;48.020;7.822;2022-08-19T06:26:14;20.40;99.90
2565;DHT22;1292;48.020;7.822;2022-08-19T06:28:42;20.50;99.90
2565;DHT22;1292;48.020;7.822;2022-08-19T06:31:13;20.50;99.90
2565;DHT22;1292;48.020;7.822;2022-08-19T06:33:41;20.50;99.90
2565;DHT22;1292;48.020;7.822;2022-08-19T06:36:17;20.50;99.90
2565;DHT22;1292;48.020;7.822;2022-08-19T06:38:44;20.60;99.90
2565;DHT22;1292;48.020;7.822;2022-08-19T06:41:10;20.60;99.90
2565;DHT22;1292;48.020;7.822;2022-08-19T06:43:37;20.60;99.90
2565;DHT22;1292;48.020;7.822;2022-08-19T06:46:10;20.60;99.90
2565;DHT22;1292;48.020;7.822;2022-08-19T06:48:37;20.60;99.90
2565;DHT22;1292;48.020;7.822;2022-08-19T06:51:04;20.70;99.90
2565;DHT22;1292;48.020;7.822;2022-08-19T06:53:33;20.70;99.90
2565;DHT22;1292;48.020;7.822;2022-08-19T06:56:00;20.80;99.90
2565;DHT22;1292;48.020;7.822;2022-08-19T06:58:28;20.70;99.90
2565;DHT22;1292;48.020;7.822;2022-08-19T07:00:58;20.70;99.90
2565;DHT22;1292;48.020;7.822;2022-08-19T07:03:27;20.80;99.90
2565;DHT22;1292;48.020;7.822;2022-08-19T07:05:54;20.70;99.90
2565;DHT22;1292;48.020;7.822;2022-08-19T07:08:21;20.70;99.90
2565;DHT22;1292;48.020;7.822;2022-08-19T07:10:51;20.70;99.90
2565;DHT22;1292;48.020;7.822;2022-08-19T07:13:17;20.80;99.90
2565;DHT22;1292;48.020;7.822;2022-08-19T07:15:44;20.70;99.90
2565;DHT22;1292;48.020;7.822;2022-08-19T07:18:12;20.80;99.90
2565;DHT22;1292;48.020;7.822;2022-08-19T07:20:39;20.70;99.90
2565;DHT22;1292;48.020;7.822;2022-08-19T07:23:07;20.80;99.90
2565;DHT22;1292;48.020;7.822;2022-08-19T07:25:36;20.80;99.90
2565;DHT22;1292;48.020;7.822;2022-08-19T07:28:05;20.80;99.90
2565;DHT22;1292;48.020;7.822;2022-08-19T07:30:32;20.90;99.90
2565;DHT22;1292;48.020;7.822;2022-08-19T07:33:02;20.80;99.90
2565;DHT22;1292;48.020;7.822;2022-08-19T07:35:29;21.00;99.90
2565;DHT22;1292;48.020;7.822;2022-08-19T07:37:57;21.00;99.90
2565;DHT22;1292;48.020;7.822;2022-08-19T07:40:29;21.00;99.90
2565;DHT22;1292;48.020;7.822;2022-08-19T07:42:56;21.00;99.90
2565;DHT22;1292;48.020;7.822;2022-08-19T07:45:24;21.10;99.90
2565;DHT22;1292;48.020;7.822;2022-08-19T07:47:51;21.00;99.90
2565;DHT22;1292;48.020;7.822;2022-08-19T07:50:20;21.10;99.90
2565;DHT22;1292;48.020;7.822;2022-08-19T07:52:47;21.20;99.90
2565;DHT22;1292;48.020;7.822;2022-08-19T07:55:16;21.30;99.90
2565;DHT22;1292;48.020;7.822;2022-08-19T07:57:43;21.30;99.90
2565;DHT22;1292;48.020;7.822;2022-08-19T08:00:10;21.30;99.90
2565;DHT22;1292;48.020;7.822;2022-08-19T08:02:39;21.30;99.90
2565;DHT22;1292;48.020;7.822;2022-08-19T08:05:08;21.50;99.90
2565;DHT22;1292;48.020;7.822;2022-08-19T08:07:52;21.50;99.90
2565;DHT22;1292;48.020;7.822;2022-08-19T08:10:36;21.50;99.90
2565;DHT22;1292;48.020;7.822;2022-08-19T08:13:03;21.60;99.90
2565;DHT22;1292;48.020;7.822;2022-08-19T08:15:31;21.50;99.90
2565;DHT22;1292;48.020;7.822;2022-08-19T08:17:59;21.50;99.90
2565;DHT22;1292;48.020;7.822;2022-08-19T08:20:26;21.60;99.90
2565;DHT22;1292;48.020;7.822;2022-08-19T08:22:53;21.70;99.90
2565;DHT22;1292;48.020;7.822;2022-08-19T08:25:37;21.80;99.90
2565;DHT22;1292;48.020;7.822;2022-08-19T08:28:04;21.80;99.90
2565;DHT22;1292;48.020;7.822;2022-08-19T08:30:34;21.90;99.90
2565;DHT22;1292;48.020;7.822;2022-08-19T08:33:03;21.90;99.90
2565;DHT22;1292;48.020;7.822;2022-08-19T08:35:31;22.00;99.90
2565;DHT22;1292;48.020;7.822;2022-08-19T08:37:59;22.00;99.90
2565;DHT22;1292;48.020;7.822;2022-08-19T08:40:30;22.00;99.90
2565;DHT22;1292;48.020;7.822;2022-08-19T08:43:00;22.00;99.90
2565;DHT22;1292;48.020;7.822;2022-08-19T08:45:30;22.10;99.90
2565;DHT22;1292;48.020;7.822;2022-08-19T08:48:07;22.10;99.90
2565;DHT22;1292;48.020;7.822;2022-08-19T08:50:41;22.10;99.90
2565;DHT22;1292;48.020;7.822;2022-08-19T08:53:10;22.00;99.90
2565;DHT22;1292;48.020;7.822;2022-08-19T08:55:37;22.00;99.90
2565;DHT22;1292;48.020;7.822;2022-08-19T08:58:11;22.10;99.90
2565;DHT22;1292;48.020;7.822;2022-08-19T09:00:44;22.10;99.90
2565;DHT22;1292;48.020;7.822;2022-08-19T09:03:18;22.20;99.90
2565;DHT22;1292;48.020;7.822;2022-08-19T09:05:56;22.20;99.90
2565;DHT22;1292;48.020;7.822;2022-08-19T09:08:34;22.10;99.90
2565;DHT22;1292;48.020;7.822;2022-08-19T09:11:08;22.20;99.90
2565;DHT22;1292;48.020;7.822;2022-08-19T09:13:42;22.20;99.90
2565;DHT22;1292;48.020;7.822;2022-08-19T09:16:13;22.30;99.90
2565;DHT22;1292;48.020;7.822;2022-08-19T09:18:44;22.30;99.90
2565;DHT22;1292;48.020;7.822;2022-08-19T09:21:13;22.10;99.90
2565;DHT22;1292;48.020;7.822;2022-08-19T09:23:40;22.10;99.90
2565;DHT22;1292;48.020;7.822;2022-08-19T09:26:10;22.20;99.90
2565;DHT22;1292;48.020;7.822;2022-08-19T09:28:38;22.30;99.90
2565;DHT22;1292;48.020;7.822;2022-08-19T09:31:06;22.40;99.90
2565;DHT22;1292;48.020;7.822;2022-08-19T09:33:33;22.40;99.90
2565;DHT22;1292;48.020;7.822;2022-08-19T09:36:07;22.50;99.90
2565;DHT22;1292;48.020;7.822;2022-08-19T09:38:35;22.50;99.90
2565;DHT22;1292;48.020;7.822;2022-08-19T09:41:07;22.50;99.90
2565;DHT22;1292;48.020;7.822;2022-08-19T09:43:34;22.40;99.90
2565;DHT22;1292;48.020;7.822;2022-08-19T09:46:04;22.40;99.90
2565;DHT22;1292;48.020;7.822;2022-08-19T09:48:31;22.40;99.90
2565;DHT22;1292;48.020;7.822;2022-08-19T09:51:05;22.50;99.90
2565;DHT22;1292;48.020;7.822;2022-08-19T09:53:33;22.60;99.90
2565;DHT22;1292;48.020;7.822;2022-08-19T09:56:00;22.60;99.90
2565;DHT22;1292;48.020;7.822;2022-08-19T09:58:27;22.50;99.90
2565;DHT22;1292;48.020;7.822;2022-08-19T10:00:56;22.50;99.90
2565;DHT22;1292;48.020;7.822;2022-08-19T10:03:24;22.60;99.90
2565;DHT22;1292;48.020;7.822;2022-08-19T10:05:53;22.70;99.90
2565;DHT22;1292;48.020;7.822;2022-08-19T10:08:25;22.80;99.90
2565;DHT22;1292;48.020;7.822;2022-08-19T10:10:53;22.80;99.90
2565;DHT22;1292;48.020;7.822;2022-08-19T10:13:23;22.90;99.90
2565;DHT22;1292;48.020;7.822;2022-08-19T10:15:52;22.90;99.90
2565;DHT22;1292;48.020;7.822;2022-08-19T10:18:22;23.00;99.90
2565;DHT22;1292;48.020;7.822;2022-08-19T10:20:50;23.10;99.90
2565;DHT22;1292;48.020;7.822;2022-08-19T10:23:21;23.10;99.90
2565;DHT22;1292;48.020;7.822;2022-08-19T10:25:48;23.20;99.90
2565;DHT22;1292;48.020;7.822;2022-08-19T10:28:15;23.40;99.90
2565;DHT22;1292;48.020;7.822;2022-08-19T10:30:42;23.30;99.90
2565;DHT22;1292;48.020;7.822;2022-08-19T10:33:08;23.30;99.90
2565;DHT22;1292;48.020;7.822;2022-08-19T10:35:35;23.30;99.90
2565;DHT22;1292;48.020;7.822;2022-08-19T10:38:03;23.20;99.90
2565;DHT22;1292;48.020;7.822;2022-08-19T10:40:31;23.30;99.90
2565;DHT22;1292;48.020;7.822;2022-08-19T10:42:59;23.40;99.90
2565;DHT22;1292;48.020;7.822;2022-08-19T10:45:26;23.40;99.90
2565;DHT22;1292;48.020;7.822;2022-08-19T10:47:53;23.50;99.90
2565;DHT22;1292;48.020;7.822;2022-08-19T10:50:20;23.50;99.90
2565;DHT22;1292;48.020;7.822;2022-08-19T10:53:06;23.30;99.90
2565;DHT22;1292;48.020;7.822;2022-08-19T10:55:36;23.40;99.90
2565;DHT22;1292;48.020;7.822;2022-08-19T10:58:31;23.50;99.90
2565;DHT22;1292;48.020;7.822;2022-08-19T11:00:58;23.60;99.90
2565;DHT22;1292;48.020;7.822;2022-08-19T11:03:26;23.40;99.90
2565;DHT22;1292;48.020;7.822;2022-08-19T11:05:59;23.30;99.90
2565;DHT22;1292;48.020;7.822;2022-08-19T11:08:26;23.50;99.90
2565;DHT22;1292;48.020;7.822;2022-08-19T11:10:55;23.60;99.90
2565;DHT22;1292;48.020;7.822;2022-08-19T11:13:26;23.80;99.90
2565;DHT22;1292;48.020;7.822;2022-08-19T11:15:58;23.90;99.90
2565;DHT22;1292;48.020;7.822;2022-08-19T11:18:24;24.10;99.90
2565;DHT22;1292;48.020;7.822;2022-08-19T11:20:52;24.20;99.90
2565;DHT22;1292;48.020;7.822;2022-08-19T11:23:19;24.40;99.90
2565;DHT22;1292;48.020;7.822;2022-08-19T11:25:46;24.40;99.90
2565;DHT22;1292;48.020;7.822;2022-08-19T11:28:14;24.40;99.90
2565;DHT22;1292;48.020;7.822;2022-08-19T11:30:41;24.40;99.90
2565;DHT22;1292;48.020;7.822;2022-08-19T11:33:08;24.60;99.90
2565;DHT22;1292;48.020;7.822;2022-08-19T11:35:39;24.60;99.90
2565;DHT22;1292;48.020;7.822;2022-08-19T11:38:05;24.60;99.90
2565;DHT22;1292;48.020;7.822;2022-08-19T11:40:32;24.70;99.90
2565;DHT22;1292;48.020;7.822;2022-08-19T11:42:59;24.80;99.90
2565;DHT22;1292;48.020;7.822;2022-08-19T11:45:28;24.80;99.90
2565;DHT22;1292;48.020;7.822;2022-08-19T11:47:55;24.60;99.90
2565;DHT22;1292;48.020;7.822;2022-08-19T11:50:22;24.70;99.90
2565;DHT22;1292;48.020;7.822;2022-08-19T11:52:50;24.70;99.90
2565;DHT22;1292;48.020;7.822;2022-08-19T11:55:19;24.40;99.90
2565;DHT22;1292;48.020;7.822;2022-08-19T11:57:46;24.50;99.90
2565;DHT22;1292;48.020;7.822;2022-08-19T12:00:14;24.50;99.90
2565;DHT22;1292;48.020;7.822;2022-08-19T12:02:42;24.50;99.90
2565;DHT22;1292;48.020;7.822;2022-08-19T12:05:09;24.40;99.90
2565;DHT22;1292;48.020;7.822;2022-08-19T12:07:36;24.40;99.90
2565;DHT22;1292;48.020;7.822;2022-08-19T12:10:03;24.40;99.90
2565;DHT22;1292;48.020;7.822;2022-08-19T12:12:30;24.40;99.90
2565;DHT22;1292;48.020;7.822;2022-08-19T12:14:57;24.50;99.90
2565;DHT22;1292;48.020;7.822;2022-08-19T12:17:24;24.60;99.90
2565;DHT22;1292;48.020;7.822;2022-08-19T12:19:54;24.80;99.90
2565;DHT22;1292;48.020;7.822;2022-08-19T12:22:21;24.90;99.90
2565;DHT22;1292;48.020;7.822;2022-08-19T12:24:48;25.00;99.90
2565;DHT22;1292;48.020;7.822;2022-08-19T12:27:16;25.10;99.90
2565;DHT22;1292;48.020;7.822;2022-08-19T12:29:43;25.20;99.90
2565;DHT22;1292;48.020;7.822;2022-08-19T12:32:09;25.30;99.90
2565;DHT22;1292;48.020;7.822;2022-08-19T12:34:36;25.30;99.90
2565;DHT22;1292;48.020;7.822;2022-08-19T12:37:06;25.40;99.90
2565;DHT22;1292;48.020;7.822;2022-08-19T12:39:38;25.40;99.90
2565;DHT22;1292;48.020;7.822;2022-08-19T12:42:05;25.40;99.90
2565;DHT22;1292;48.020;7.822;2022-08-19T12:44:32;25.30;99.90
2565;DHT22;1292;48.020;7.822;2022-08-19T12:46:59;25.30;99.90
2565;DHT22;1292;48.020;7.822;2022-08-19T12:49:28;25.20;99.90
2565;DHT22;1292;48.020;7.822;2022-08-19T12:51:55;25.20;99.90
2565;DHT22;1292;48.020;7.822;2022-08-19T12:54:24;25.20;99.90
2565;DHT22;1292;48.020;7.822;2022-08-19T12:56:51;25.30;99.90
2565;DHT22;1292;48.020;7.822;2022-08-19T12:59:18;25.30;99.90
2565;DHT22;1292;48.020;7.822;2022-08-19T13:01:45;25.30;99.90
2565;DHT22;1292;48.020;7.822;2022-08-19T13:04:12;25.40;99.90
2565;DHT22;1292;48.020;7.822;2022-08-19T13:06:39;25.20;99.90
2565;DHT22;1292;48.020;7.822;2022-08-19T13:09:06;25.00;99.90
2565;DHT22;1292;48.020;7.822;2022-08-19T13:11:34;25.20;99.90
2565;DHT22;1292;48.020;7.822;2022-08-19T13:14:02;25.30;99.90
2565;DHT22;1292;48.020;7.822;2022-08-19T13:16:29;25.40;99.90
2565;DHT22;1292;48.020;7.822;2022-08-19T13:18:57;25.40;99.90
2565;DHT22;1292;48.020;7.822;2022-08-19T13:21:26;25.60;99.90
2565;DHT22;1292;48.020;7.822;2022-08-19T13:23:55;25.60;99.90
2565;DHT22;1292;48.020;7.822;2022-08-19T13:26:23;25.80;99.90
2565;DHT22;1292;48.020;7.822;2022-08-19T13:28:58;25.80;99.90
2565;DHT22;1292;48.020;7.822;2022-08-19T13:31:42;25.90;99.90
2565;DHT22;1292;48.020;7.822;2022-08-19T13:34:29;26.10;99.90
2565;DHT22;1292;48.020;7.822;2022-08-19T13:37:00;26.10;99.90
2565;DHT22;1292;48.020;7.822;2022-08-19T13:39:29;26.30;99.90
2565;DHT22;1292;48.020;7.822;2022-08-19T13:41:58;26.30;99.90
2565;DHT22;1292;48.020;7.822;2022-08-19T13:44:28;26.30;99.90
2565;DHT22;1292;48.020;7.822;2022-08-19T13:47:00;26.40;99.90
2565;DHT22;1292;48.020;7.822;2022-08-19T13:49:29;26.50;99.90
2565;DHT22;1292;48.020;7.822;2022-08-19T13:51:57;26.60;99.90
2565;DHT22;1292;48.020;7.822;2022-08-19T13:54:24;26.70;99.90
2565;DHT22;1292;48.020;7.822;2022-08-19T13:56:52;26.60;99.90
2565;DHT22;1292;48.020;7.822;2022-08-19T13:59:21;26.50;99.90
2565;DHT22;1292;48.020;7.822;2022-08-19T14:01:51;26.60;99.90
2565;DHT22;1292;48.020;7.822;2022-08-19T14:04:19;26.70;99.90
2565;DHT22;1292;48.020;7.822;2022-08-19T14:06:46;26.80;99.90
2565;DHT22;1292;48.020;7.822;2022-08-19T14:09:13;26.80;99.90
2565;DHT22;1292;48.020;7.822;2022-08-19T14:11:40;26.80;99.90
2565;DHT22;1292;48.020;7.822;2022-08-19T14:14:07;26.60;99.90
2565;DHT22;1292;48.020;7.822;2022-08-19T14:16:39;26.50;99.90
2565;DHT22;1292;48.020;7.822;2022-08-19T14:19:09;26.50;99.90
2565;DHT22;1292;48.020;7.822;2022-08-19T14:21:37;26.40;99.90
2565;DHT22;1292;48.020;7.822;2022-08-19T14:24:07;26.00;99.90
2565;DHT22;1292;48.020;7.822;2022-08-19T14:26:36;25.80;99.90
2565;DHT22;1292;48.020;7.822;2022-08-19T14:29:04;25.70;99.90
2565;DHT22;1292;48.020;7.822;2022-08-19T14:31:31;25.50;99.90
2565;DHT22;1292;48.020;7.822;2022-08-19T14:33:59;25.40;99.90
2565;DHT22;1292;48.020;7.822;2022-08-19T14:36:27;25.40;99.90
2565;DHT22;1292;48.020;7.822;2022-08-19T14:38:55;25.20;99.90
2565;DHT22;1292;48.020;7.822;2022-08-19T14:41:23;24.90;99.90
2565;DHT22;1292;48.020;7.822;2022-08-19T14:43:52;24.70;99.90
2565;DHT22;1292;48.020;7.822;2022-08-19T14:46:23;24.60;99.90
2565;DHT22;1292;48.020;7.822;2022-08-19T14:48:51;24.50;99.90
2565;DHT22;1292;48.020;7.822;2022-08-19T14:51:24;24.60;99.90
2565;DHT22;1292;48.020;7.822;2022-08-19T14:53:53;24.60;99.90
2565;DHT22;1292;48.020;7.822;2022-08-19T14:56:22;24.60;99.90
2565;DHT22;1292;48.020;7.822;2022-08-19T14:58:51;24.60;99.90
2565;DHT22;1292;48.020;7.822;2022-08-19T15:01:19;24.60;99.90
2565;DHT22;1292;48.020;7.822;2022-08-19T15:03:49;24.50;99.90
2565;DHT22;1292;48.020;7.822;2022-08-19T15:06:18;24.60;99.90
2565;DHT22;1292;48.020;7.822;2022-08-19T15:08:45;24.50;99.90
2565;DHT22;1292;48.020;7.822;2022-08-19T15:11:16;24.40;99.90
2565;DHT22;1292;48.020;7.822;2022-08-19T15:13:45;24.40;99.90
2565;DHT22;1292;48.020;7.822;2022-08-19T15:16:15;24.40;99.90
2565;DHT22;1292;48.020;7.822;2022-08-19T15:18:43;24.40;99.90
2565;DHT22;1292;48.020;7.822;2022-08-19T15:21:12;24.40;99.90
2565;DHT22;1292;48.020;7.822;2022-08-19T15:23:41;24.40;99.90
2565;DHT22;1292;48.020;7.822;2022-08-19T15:26:08;24.40;99.90
2565;DHT22;1292;48.020;7.822;2022-08-19T15:28:38;24.40;99.90
2565;DHT22;1292;48.020;7.822;2022-08-19T15:31:07;24.40;99.90
2565;DHT22;1292;48.020;7.822;2022-08-19T15:33:35;24.40;99.90
2565;DHT22;1292;48.020;7.822;2022-08-19T15:36:05;24.40;99.90
2565;DHT22;1292;48.020;7.822;2022-08-19T15:38:34;24.40;99.90
2565;DHT22;1292;48.020;7.822;2022-08-19T15:41:04;24.40;99.90
2565;DHT22;1292;48.020;7.822;2022-08-19T15:43:48;24.50;99.90
2565;DHT22;1292;48.020;7.822;2022-08-19T15:46:16;24.50;99.90
2565;DHT22;1292;48.020;7.822;2022-08-19T15:48:45;24.50;99.90
2565;DHT22;1292;48.020;7.822;2022-08-19T15:51:11;24.60;99.90
2565;DHT22;1292;48.020;7.822;2022-08-19T15:53:39;24.60;99.90
2565;DHT22;1292;48.020;7.822;2022-08-19T15:56:06;24.60;99.90
2565;DHT22;1292;48.020;7.822;2022-08-19T15:58:33;24.70;99.90
2565;DHT22;1292;48.020;7.822;2022-08-19T16:01:19;24.70;99.90
2565;DHT22;1292;48.020;7.822;2022-08-19T16:04:09;24.80;99.90
2565;DHT22;1292;48.020;7.822;2022-08-19T16:06:56;24.80;99.90
2565;DHT22;1292;48.020;7.822;2022-08-19T16:09:24;24.80;99.90
2565;DHT22;1292;48.020;7.822;2022-08-19T16:11:54;24.90;99.90
2565;DHT22;1292;48.020;7.822;2022-08-19T16:14:21;24.80;99.90
2565;DHT22;1292;48.020;7.822;2022-08-19T16:16:50;24.80;99.90
2565;DHT22;1292;48.020;7.822;2022-08-19T16:19:18;24.80;99.90
2565;DHT22;1292;48.020;7.822;2022-08-19T16:21:48;24.80;99.90
2565;DHT22;1292;48.020;7.822;2022-08-19T16:24:17;24.80;99.90
2565;DHT22;1292;48.020;7.822;2022-08-19T16:26:45;24.80;99.90
2565;DHT22;1292;48.020;7.822;2022-08-19T16:29:13;24.80;99.90
2565;DHT22;1292;48.020;7.822;2022-08-19T16:31:42;24.80;99.90
2565;DHT22;1292;48.020;7.822;2022-08-19T16:34:12;24.80;99.90
2565;DHT22;1292;48.020;7.822;2022-08-19T16:36:39;24.90;99.90
2565;DHT22;1292;48.020;7.822;2022-08-19T16:39:08;24.90;99.90
2565;DHT22;1292;48.020;7.822;2022-08-19T16:41:36;24.90;99.90
2565;DHT22;1292;48.020;7.822;2022-08-19T16:44:03;25.00;99.90
2565;DHT22;1292;48.020;7.822;2022-08-19T16:46:30;25.00;99.90
2565;DHT22;1292;48.020;7.822;2022-08-19T16:48:57;25.00;99.90
2565;DHT22;1292;48.020;7.822;2022-08-19T16:51:25;25.00;99.90
2565;DHT22;1292;48.020;7.822;2022-08-19T16:53:52;25.00;99.90
2565;DHT22;1292;48.020;7.822;2022-08-19T16:56:20;25.00;99.90
2565;DHT22;1292;48.020;7.822;2022-08-19T16:58:47;24.90;99.90
2565;DHT22;1292;48.020;7.822;2022-08-19T17:01:15;24.90;99.90
2565;DHT22;1292;48.020;7.822;2022-08-19T17:03:41;24.90;99.90
2565;DHT22;1292;48.020;7.822;2022-08-19T17:06:11;24.90;99.90
2565;DHT22;1292;48.020;7.822;2022-08-19T17:08:41;25.00;99.90
2565;DHT22;1292;48.020;7.822;2022-08-19T17:11:08;24.90;99.90
2565;DHT22;1292;48.020;7.822;2022-08-19T17:13:35;24.90;99.90
2565;DHT22;1292;48.020;7.822;2022-08-19T17:16:03;24.90;99.90
2565;DHT22;1292;48.020;7.822;2022-08-19T17:18:30;24.80;99.90
2565;DHT22;1292;48.020;7.822;2022-08-19T17:20:58;24.70;99.90
2565;DHT22;1292;48.020;7.822;2022-08-19T17:23:25;24.70;99.90
2565;DHT22;1292;48.020;7.822;2022-08-19T17:25:54;24.70;99.90
2565;DHT22;1292;48.020;7.822;2022-08-19T17:28:23;24.70;99.90
2565;DHT22;1292;48.020;7.822;2022-08-19T17:30:51;24.70;99.90
2565;DHT22;1292;48.020;7.822;2022-08-19T17:33:17;24.60;99.90
2565;DHT22;1292;48.020;7.822;2022-08-19T17:35:44;24.60;99.90
2565;DHT22;1292;48.020;7.822;2022-08-19T17:38:15;24.50;99.90
2565;DHT22;1292;48.020;7.822;2022-08-19T17:40:43;24.50;99.90
2565;DHT22;1292;48.020;7.822;2022-08-19T17:43:13;24.40;99.90
2565;DHT22;1292;48.020;7.822;2022-08-19T17:45:41;24.30;99.90
2565;DHT22;1292;48.020;7.822;2022-08-19T17:48:09;24.30;99.90
2565;DHT22;1292;48.020;7.822;2022-08-19T17:50:36;24.20;99.90
2565;DHT22;1292;48.020;7.822;2022-08-19T17:53:04;24.20;99.90
2565;DHT22;1292;48.020;7.822;2022-08-19T17:55:31;24.10;99.90
2565;DHT22;1292;48.020;7.822;2022-08-19T17:57:59;24.10;99.90
2565;DHT22;1292;48.020;7.822;2022-08-19T18:00:32;24.10;99.90
2565;DHT22;1292;48.020;7.822;2022-08-19T18:03:01;24.10;99.90
2565;DHT22;1292;48.020;7.822;2022-08-19T18:05:31;23.90;99.90
2565;DHT22;1292;48.020;7.822;2022-08-19T18:07:58;23.90;99.90
2565;DHT22;1292;48.020;7.822;2022-08-19T18:10:28;23.80;99.90
2565;DHT22;1292;48.020;7.822;2022-08-19T18:12:57;23.80;99.90
2565;DHT22;1292;48.020;7.822;2022-08-19T18:15:24;23.80;99.90
2565;DHT22;1292;48.020;7.822;2022-08-19T18:17:52;23.70;99.90
2565;DHT22;1292;48.020;7.822;2022-08-19T18:20:19;23.70;99.90
2565;DHT22;1292;48.020;7.822;2022-08-19T18:22:48;23.70;99.90
2565;DHT22;1292;48.020;7.822;2022-08-19T18:25:17;23.70;99.90
2565;DHT22;1292;48.020;7.822;2022-08-19T18:27:47;23.60;99.90
2565;DHT22;1292;48.020;7.822;2022-08-19T18:30:14;23.50;99.90
2565;DHT22;1292;48.020;7.822;2022-08-19T18:32:41;23.50;99.90
2565;DHT22;1292;48.020;7.822;2022-08-19T18:35:14;23.40;99.90
2565;DHT22;1292;48.020;7.822;2022-08-19T18:37:43;23.30;99.90
2565;DHT22;1292;48.020;7.822;2022-08-19T18:40:16;23.30;99.90
2565;DHT22;1292;48.020;7.822;2022-08-19T18:43:01;23.20;99.90
2565;DHT22;1292;48.020;7.822;2022-08-19T18:45:42;23.20;99.90
2565;DHT22;1292;48.020;7.822;2022-08-19T18:48:27;23.20;99.90
2565;DHT22;1292;48.020;7.822;2022-08-19T18:51:13;23.10;99.90
2565;DHT22;1292;48.020;7.822;2022-08-19T18:53:42;23.10;99.90
2565;DHT22;1292;48.020;7.822;2022-08-19T18:56:11;23.00;99.90
2565;DHT22;1292;48.020;7.822;2022-08-19T18:58:39;23.00;99.90
2565;DHT22;1292;48.020;7.822;2022-08-19T19:01:09;23.00;99.90
2565;DHT22;1292;48.020;7.822;2022-08-19T19:03:38;22.90;99.90
2565;DHT22;1292;48.020;7.822;2022-08-19T19:06:06;22.90;99.90
2565;DHT22;1292;48.020;7.822;2022-08-19T19:08:34;22.90;99.90
2565;DHT22;1292;48.020;7.822;2022-08-19T19:11:01;22.90;99.90
2565;DHT22;1292;48.020;7.822;2022-08-19T19:13:31;22.80;99.90
2565;DHT22;1292;48.020;7.822;2022-08-19T19:15:58;22.80;99.90
2565;DHT22;1292;48.020;7.822;2022-08-19T19:18:26;22.80;99.90
2565;DHT22;1292;48.020;7.822;2022-08-19T19:20:53;22.80;99.90
2565;DHT22;1292;48.020;7.822;2022-08-19T19:23:20;22.70;99.90
2565;DHT22;1292;48.020;7.822;2022-08-19T19:25:48;22.70;99.90
2565;DHT22;1292;48.020;7.822;2022-08-19T19:28:17;22.60;99.90
2565;DHT22;1292;48.020;7.822;2022-08-19T19:30:52;22.60;99.90
2565;DHT22;1292;48.020;7.822;2022-08-19T19:33:23;22.60;99.90
2565;DHT22;1292;48.020;7.822;2022-08-19T19:35:50;22.50;99.90
2565;DHT22;1292;48.020;7.822;2022-08-19T19:38:17;22.50;99.90
2565;DHT22;1292;48.020;7.822;2022-08-19T19:40:44;22.50;99.90
2565;DHT22;1292;48.020;7.822;2022-08-19T19:43:12;22.40;99.90
2565;DHT22;1292;48.020;7.822;2022-08-19T19:45:41;22.40;99.90
2565;DHT22;1292;48.020;7.822;2022-08-19T19:48:08;22.30;99.90
2565;DHT22;1292;48.020;7.822;2022-08-19T19:50:40;22.30;99.90
2565;DHT22;1292;48.020;7.822;2022-08-19T19:53:07;22.30;99.90
2565;DHT22;1292;48.020;7.822;2022-08-19T19:55:34;22.30;99.90
2565;DHT22;1292;48.020;7.822;2022-08-19T19:58:01;22.20;99.90
2565;DHT22;1292;48.020;7.822;2022-08-19T20:00:30;22.20;99.90
2565;DHT22;1292;48.020;7.822;2022-08-19T20:02:57;22.20;99.90
2565;DHT22;1292;48.020;7.822;2022-08-19T20:05:24;22.10;99.90
2565;DHT22;1292;48.020;7.822;2022-08-19T20:07:52;22.10;99.90
2565;DHT22;1292;48.020;7.822;2022-08-19T20:10:37;22.00;99.90
2565;DHT22;1292;48.020;7.822;2022-08-19T20:13:04;22.00;99.90
2565;DHT22;1292;48.020;7.822;2022-08-19T20:15:33;21.90;99.90
2565;DHT22;1292;48.020;7.822;2022-08-19T20:18:00;21.90;99.90
2565;DHT22;1292;48.020;7.822;2022-08-19T20:20:28;21.90;99.90
2565;DHT22;1292;48.020;7.822;2022-08-19T20:22:56;21.70;99.90
2565;DHT22;1292;48.020;7.822;2022-08-19T20:25:23;21.70;99.90
2565;DHT22;1292;48.020;7.822;2022-08-19T20:27:50;21.60;99.90
2565;DHT22;1292;48.020;7.822;2022-08-19T20:30:19;21.60;99.90
2565;DHT22;1292;48.020;7.822;2022-08-19T20:32:48;21.50;99.90
2565;DHT22;1292;48.020;7.822;2022-08-19T20:35:17;21.50;99.90
2565;DHT22;1292;48.020;7.822;2022-08-19T20:37:45;21.40;99.90
2565;DHT22;1292;48.020;7.822;2022-08-19T20:40:12;21.30;99.90
2565;DHT22;1292;48.020;7.822;2022-08-19T20:42:41;21.30;99.90
2565;DHT22;1292;48.020;7.822;2022-08-19T20:45:10;21.30;99.90
2565;DHT22;1292;48.020;7.822;2022-08-19T20:47:37;21.20;99.90
2565;DHT22;1292;48.020;7.822;2022-08-19T20:50:08;21.20;99.90
2565;DHT22;1292;48.020;7.822;2022-08-19T20:52:36;21.20;99.90
2565;DHT22;1292;48.020;7.822;2022-08-19T20:55:04;20.90;99.90
2565;DHT22;1292;48.020;7.822;2022-08-19T20:57:30;20.70;99.90
2565;DHT22;1292;48.020;7.822;2022-08-19T20:59:57;20.60;99.90
